Time;durP1;ratioP1;P1;durP2;ratioP2;P2;SDS_P1;SDS_P2;PMS_P1;PMS_P2;Temp;Humidity;BMP_temperature;BMP_pressure;BME280_temperature;BME280_humidity;BME280_pressure;Samples;Min_cycle;Max_cycle;Signal;HPM_P1;HPM_P2
2022/12/27 15:35:23;;;;;;;11.70;5.10;;;6.00;99.90;;;;;;5044700;27;1928481;-61
2022/12/27 15:37:52;;;;;;;11.55;5.25;;;6.00;99.90;;;;;;5088982;28;20036;-61
2022/12/27 15:40:31;;;;;;;7.85;3.95;;;6.00;99.90;;;;;;5089167;28;20083;-61
2022/12/27 15:43:10;;;;;;;6.97;4.32;;;6.10;99.90;;;;;;5088674;28;20060;-61
2022/12/27 15:45:48;;;;;;;11.18;5.90;;;6.30;99.90;;;;;;5089494;28;20040;-62
2022/12/27 15:48:51;;;;;;;9.25;5.78;;;6.40;99.90;;;;;;5089290;28;20047;-62
2022/12/27 15:51:39;;;;;;;10.48;6.82;;;6.40;99.90;;;;;;5066351;28;20400;-62
2022/12/27 15:54:16;;;;;;;14.90;8.15;;;6.50;99.90;;;;;;5070595;28;20404;-62
2022/12/27 15:57:07;;;;;;;12.18;6.22;;;6.50;99.90;;;;;;5088294;28;20460;-62
2022/12/27 15:59:33;;;;;;;12.98;7.82;;;6.50;99.90;;;;;;5089287;28;20024;-62
2022/12/27 16:02:25;;;;;;;9.82;6.90;;;6.50;99.90;;;;;;5089014;28;20470;-62
2022/12/27 16:04:59;;;;;;;10.63;6.30;;;6.50;99.90;;;;;;5088263;28;20093;-62
2022/12/27 16:07:59;;;;;;;11.88;5.93;;;6.50;99.90;;;;;;5088914;28;20066;-62
2022/12/27 16:10:31;;;;;;;9.80;5.07;;;6.50;99.90;;;;;;5088221;28;20051;-62
2022/12/27 16:13:08;;;;;;;14.40;4.90;;;6.60;99.90;;;;;;5084742;28;20505;-62
2022/12/27 16:15:38;;;;;;;11.18;4.50;;;6.50;99.90;;;;;;5087102;28;20110;-62
2022/12/27 16:18:04;;;;;;;13.60;5.28;;;6.60;99.90;;;;;;5087198;28;20020;-62
2022/12/27 16:20:31;;;;;;;8.95;4.45;;;6.50;99.90;;;;;;5070660;28;20024;-62
2022/12/27 16:23:03;;;;;;;9.85;4.75;;;6.60;99.90;;;;;;5087234;28;20035;-62
2022/12/27 16:25:44;;;;;;;9.63;6.07;;;6.60;99.90;;;;;;5088129;28;20031;-62
2022/12/27 16:28:23;;;;;;;10.93;6.38;;;6.60;99.90;;;;;;5088809;28;20024;-62
2022/12/27 16:30:52;;;;;;;13.32;6.50;;;6.60;99.90;;;;;;5088557;28;20030;-62
2022/12/27 16:33:26;;;;;;;18.40;7.75;;;6.60;99.90;;;;;;5087530;28;20036;-62
2022/12/27 16:36:15;;;;;;;9.52;5.10;;;6.70;99.90;;;;;;5088300;28;20070;-62
2022/12/27 16:39:04;;;;;;;11.88;5.15;;;6.70;99.90;;;;;;5087618;28;20024;-62
2022/12/27 16:41:53;;;;;;;16.92;5.50;;;6.70;99.90;;;;;;5088131;28;20028;-62
2022/12/27 16:44:24;;;;;;;11.40;6.03;;;6.70;99.90;;;;;;5067666;28;20111;-62
2022/12/27 16:47:09;;;;;;;11.55;4.30;;;6.70;99.90;;;;;;5074329;28;20017;-62
2022/12/27 16:49:43;;;;;;;8.18;4.55;;;6.70;99.90;;;;;;5074049;28;20032;-62
2022/12/27 16:52:12;;;;;;;10.05;4.05;;;6.70;99.90;;;;;;5073533;28;20101;-62
2022/12/27 16:54:56;;;;;;;8.48;4.45;;;6.70;99.90;;;;;;5072707;28;20028;-62
2022/12/27 16:57:25;;;;;;;9.93;4.35;;;6.80;99.90;;;;;;5073713;28;20028;-62
2022/12/27 16:59:58;;;;;;;9.35;5.10;;;6.80;99.90;;;;;;5072589;28;20021;-62
2022/12/27 17:02:31;;;;;;;8.05;5.00;;;6.80;99.90;;;;;;5073532;28;20418;-63
2022/12/27 17:04:59;;;;;;;9.38;4.78;;;6.80;99.90;;;;;;5073366;28;20519;-62
2022/12/27 17:07:54;;;;;;;11.55;5.20;;;6.80;99.90;;;;;;5072790;28;20039;-62
2022/12/27 17:10:34;;;;;;;10.52;4.95;;;6.80;99.90;;;;;;5073231;28;20025;-62
2022/12/27 17:13:14;;;;;;;7.88;3.75;;;6.80;99.90;;;;;;5073398;28;20033;-63
2022/12/27 17:16:07;;;;;;;12.70;4.63;;;6.80;99.90;;;;;;5072438;28;20024;-62
2022/12/27 17:18:56;;;;;;;8.90;3.88;;;6.80;99.90;;;;;;5073191;28;20021;-62
2022/12/27 17:21:53;;;;;;;9.25;3.78;;;6.80;99.90;;;;;;5072549;28;20431;-62
2022/12/27 17:24:20;;;;;;;6.40;3.70;;;6.80;99.90;;;;;;5071934;28;20524;-62
2022/12/27 17:27:04;;;;;;;7.90;3.63;;;6.80;99.90;;;;;;5072732;28;20048;-62
2022/12/27 17:29:51;;;;;;;7.50;3.50;;;6.80;99.90;;;;;;5072104;28;20338;-63
2022/12/27 17:32:25;;;;;;;10.18;4.68;;;6.80;99.90;;;;;;5072791;28;20121;-63
2022/12/27 17:35:07;;;;;;;9.98;5.38;;;6.80;99.90;;;;;;5071704;28;20098;-62
2022/12/27 17:37:58;;;;;;;9.48;4.50;;;6.70;99.90;;;;;;5072876;28;20028;-62
2022/12/27 17:40:42;;;;;;;9.10;4.55;;;6.80;99.90;;;;;;5072657;28;20024;-62
2022/12/27 17:49:49;;;;;;;15.82;9.20;;;6.70;99.90;;;;;;5087220;28;20673;-61
2022/12/27 17:58:03;;;;;;;19.50;8.20;;;6.70;99.90;;;;;;5087623;28;20035;-61
2022/12/27 18:00:37;;;;;;;13.50;7.97;;;6.60;99.90;;;;;;5088077;28;20085;-61
2022/12/27 18:03:07;;;;;;;16.10;7.28;;;6.60;99.90;;;;;;5086995;28;20120;-61
2022/12/27 18:05:38;;;;;;;10.00;5.22;;;6.60;99.90;;;;;;5087883;28;20075;-61
2022/12/27 18:08:21;;;;;;;10.40;5.38;;;6.60;99.90;;;;;;5087892;28;20039;-60
2022/12/27 18:10:46;;;;;;;8.43;4.32;;;6.60;99.90;;;;;;5085694;28;20053;-61
2022/12/27 18:13:18;;;;;;;9.38;4.68;;;6.70;99.90;;;;;;5087546;28;20095;-61
2022/12/27 18:15:46;;;;;;;11.25;3.85;;;6.70;99.90;;;;;;5086148;28;20101;-61
2022/12/27 18:18:25;;;;;;;10.32;3.88;;;6.80;99.90;;;;;;5085922;28;20388;-61
2022/12/27 18:20:58;;;;;;;10.60;3.53;;;6.80;99.90;;;;;;5087810;28;20025;-61
2022/12/27 18:23:24;;;;;;;9.43;4.10;;;6.80;99.90;;;;;;5087868;28;20024;-61
2022/12/27 18:26:00;;;;;;;10.23;4.22;;;6.80;99.90;;;;;;5086833;28;20024;-61
2022/12/27 18:28:28;;;;;;;8.13;4.68;;;6.80;99.90;;;;;;5087844;28;20115;-61
2022/12/27 18:31:15;;;;;;;9.50;4.60;;;6.70;99.90;;;;;;5085530;28;20027;-61
2022/12/27 18:33:43;;;;;;;10.52;5.55;;;6.60;99.90;;;;;;5087355;28;20020;-61
2022/12/27 18:36:18;;;;;;;10.27;4.70;;;6.50;99.90;;;;;;5087396;28;20099;-61
2022/12/27 18:38:46;;;;;;;9.45;4.00;;;6.40;99.90;;;;;;5086665;28;20434;-61
2022/12/27 18:41:16;;;;;;;13.63;3.92;;;6.40;99.90;;;;;;5087243;28;20004;-61
2022/12/27 18:43:45;;;;;;;5.80;3.00;;;6.30;99.90;;;;;;5087520;28;20027;-61
2022/12/27 18:46:26;;;;;;;7.68;3.70;;;6.30;99.90;;;;;;5086845;28;20068;-61
2022/12/27 18:48:52;;;;;;;8.93;4.05;;;6.30;99.90;;;;;;5086572;28;20050;-61
2022/12/27 18:51:18;;;;;;;7.43;3.13;;;6.30;99.90;;;;;;5087091;28;20349;-61
2022/12/27 18:53:44;;;;;;;8.50;3.45;;;6.30;99.90;;;;;;5085294;28;20028;-61
2022/12/27 18:56:13;;;;;;;12.48;4.25;;;6.30;99.90;;;;;;5085745;28;20368;-61
2022/12/27 18:58:39;;;;;;;8.73;3.70;;;6.30;99.90;;;;;;5086688;28;20577;-61
2022/12/27 19:01:22;;;;;;;6.93;3.28;;;6.30;99.90;;;;;;5073286;28;20029;-61
2022/12/27 19:04:16;;;;;;;8.38;4.40;;;6.20;99.90;;;;;;5072995;28;20020;-61
2022/12/27 19:06:59;;;;;;;7.57;4.07;;;6.20;99.90;;;;;;5072792;28;20024;-61
2022/12/27 19:09:30;;;;;;;9.57;3.70;;;6.20;99.90;;;;;;5073443;28;20036;-61
2022/12/27 19:12:01;;;;;;;10.68;4.75;;;6.20;99.90;;;;;;5072998;28;20025;-61
2022/12/27 19:14:41;;;;;;;13.50;3.95;;;6.20;99.90;;;;;;5072682;28;20233;-61
2022/12/27 19:17:20;;;;;;;9.63;3.75;;;6.20;99.90;;;;;;5073108;28;20013;-61
2022/12/27 19:19:50;;;;;;;8.35;3.85;;;6.20;99.90;;;;;;5072990;28;20025;-61
2022/12/27 19:22:35;;;;;;;9.07;3.83;;;6.20;99.90;;;;;;5072416;28;20385;-61
2022/12/27 19:25:04;;;;;;;8.48;3.75;;;6.20;99.90;;;;;;5072887;28;20020;-61
2022/12/27 19:27:30;;;;;;;7.78;3.60;;;6.10;99.90;;;;;;5071087;28;20477;-61
2022/12/27 19:29:56;;;;;;;7.78;4.20;;;6.10;99.90;;;;;;5071460;28;20028;-61
2022/12/27 19:32:31;;;;;;;8.00;3.28;;;6.10;99.90;;;;;;5072969;28;20025;-61
2022/12/27 19:34:59;;;;;;;6.20;3.33;;;6.00;99.90;;;;;;5072677;28;20032;-61
2022/12/27 19:37:27;;;;;;;9.98;3.78;;;6.10;99.90;;;;;;5072788;28;20029;-60
2022/12/27 19:39:53;;;;;;;7.85;3.70;;;6.00;99.90;;;;;;5071422;28;20166;-61
2022/12/27 19:42:29;;;;;;;7.40;3.65;;;6.00;99.90;;;;;;5071855;28;20036;-61
2022/12/27 19:44:55;;;;;;;7.85;3.33;;;6.00;99.90;;;;;;5072468;28;20024;-61
2022/12/27 19:47:21;;;;;;;8.05;3.67;;;5.90;99.90;;;;;;5072936;28;20021;-61
2022/12/27 19:49:47;;;;;;;6.88;3.80;;;5.90;99.90;;;;;;5072062;28;20068;-61
2022/12/27 19:52:18;;;;;;;10.52;3.50;;;5.90;99.90;;;;;;5072915;28;20113;-61
2022/12/27 19:54:44;;;;;;;11.48;3.53;;;5.90;99.90;;;;;;5072727;28;20043;-61
2022/12/27 19:57:13;;;;;;;9.32;4.00;;;5.80;99.90;;;;;;5071792;28;20032;-61
2022/12/27 19:59:39;;;;;;;8.88;3.50;;;5.80;99.90;;;;;;5072307;28;20024;-61
2022/12/27 20:02:05;;;;;;;8.60;3.15;;;5.80;99.90;;;;;;5072591;28;20067;-61
2022/12/27 20:04:31;;;;;;;8.82;3.78;;;5.80;99.90;;;;;;5070458;28;20078;-61
2022/12/27 20:06:56;;;;;;;7.57;3.05;;;5.80;99.90;;;;;;5070853;28;20059;-61
2022/12/27 20:09:22;;;;;;;8.55;3.55;;;5.70;99.90;;;;;;5071741;28;20071;-61
2022/12/27 20:11:48;;;;;;;11.43;3.85;;;5.70;99.90;;;;;;5071097;28;20071;-61
2022/12/27 20:14:16;;;;;;;9.48;3.30;;;5.70;99.90;;;;;;5072203;28;20029;-61
2022/12/27 20:16:42;;;;;;;8.07;3.78;;;5.60;99.90;;;;;;5071459;28;20021;-61
2022/12/27 20:19:10;;;;;;;8.52;3.80;;;5.60;99.90;;;;;;5072038;28;20781;-61
2022/12/27 20:21:38;;;;;;;5.68;3.15;;;5.70;99.90;;;;;;5072067;28;20012;-61
2022/12/27 20:24:04;;;;;;;7.28;3.60;;;5.60;99.90;;;;;;5071449;28;20021;-61
2022/12/27 20:26:29;;;;;;;15.30;3.92;;;5.60;99.90;;;;;;5072314;28;20051;-61
2022/12/27 20:28:55;;;;;;;10.98;4.65;;;5.60;99.90;;;;;;5071898;28;20461;-61
2022/12/27 20:31:21;;;;;;;5.97;4.15;;;5.60;99.90;;;;;;5071227;28;20099;-61
2022/12/27 20:33:51;;;;;;;7.38;4.20;;;5.60;99.90;;;;;;5071667;28;20028;-61
2022/12/27 20:36:17;;;;;;;8.67;4.60;;;5.60;99.90;;;;;;5070225;28;20078;-60
2022/12/27 20:38:42;;;;;;;11.25;4.78;;;5.60;99.90;;;;;;5071168;28;20025;-60
2022/12/27 20:41:17;;;;;;;7.82;4.32;;;5.60;99.90;;;;;;5071729;28;20373;-60
2022/12/27 20:43:43;;;;;;;10.25;6.10;;;5.60;99.90;;;;;;5071671;28;20373;-60
2022/12/27 20:46:16;;;;;;;12.10;5.68;;;5.50;99.90;;;;;;5069736;28;20024;-60
2022/12/27 20:48:44;;;;;;;10.98;5.78;;;5.60;99.90;;;;;;5070950;28;20044;-61
2022/12/27 20:51:22;;;;;;;10.02;5.50;;;5.60;99.90;;;;;;5071543;28;20031;-60
2022/12/27 20:53:52;;;;;;;11.38;5.10;;;5.60;99.90;;;;;;5069209;28;20123;-60
2022/12/27 20:56:18;;;;;;;12.43;5.27;;;5.50;99.90;;;;;;5071450;28;20033;-61
2022/12/27 20:58:43;;;;;;;9.90;5.18;;;5.60;99.90;;;;;;5070618;28;20111;-60
2022/12/27 21:01:14;;;;;;;8.48;4.10;;;5.60;99.90;;;;;;5071192;28;20417;-60
2022/12/27 21:03:41;;;;;;;6.53;3.75;;;5.50;99.90;;;;;;5070914;28;20040;-61
2022/12/27 21:06:12;;;;;;;7.00;4.35;;;5.60;99.90;;;;;;5070008;28;20370;-61
2022/12/27 21:08:39;;;;;;;8.60;4.10;;;5.50;99.90;;;;;;5069865;28;20039;-60
2022/12/27 21:11:11;;;;;;;10.00;3.90;;;5.50;99.90;;;;;;5071243;28;20028;-61
2022/12/27 21:13:38;;;;;;;9.40;4.65;;;5.50;99.90;;;;;;5070382;28;20513;-60
2022/12/27 21:16:08;;;;;;;7.30;4.15;;;5.50;99.90;;;;;;5070554;28;20021;-61
2022/12/27 21:18:34;;;;;;;10.13;4.40;;;5.50;99.90;;;;;;5071095;28;20172;-61
2022/12/27 21:21:01;;;;;;;9.30;5.30;;;5.50;99.90;;;;;;5070302;28;20416;-61
2022/12/27 21:23:30;;;;;;;12.40;6.47;;;5.50;99.90;;;;;;5070915;28;20032;-61
